EGACEGCC

Guest
Details From EGAC - Belfast City
To EGCC - Manchester
Flight Number -
Tags Generated
Created
Modified
Stats Distance 148 nm / 273 km
Max Altitude 0 ft / 0 m
Waypoints 2
Social Downloads 4
Likes 0
Share VATSIM

Download

Looking for another format? Having issues loading an existing format? Contact us
Advertisement - Login to hide

Notes

Generated

Route

EGAC EGCC

ID Type Via Altitude Latitude Longitude Leg Dist Tot Dist Heading (true) Name
O EGAC APT - 0 ft / 0 m 54.61136˚ -5.88072˚ - 0 nm - -
O EGCC APT - 0 ft / 0 m 53.33197˚ -2.31066˚ 147 nm 147 nm 120° / 123° -

Altitude Profile

Advertisement - Login to hide

EGAC

Details ICAO EGAC (BHD)
Name Belfast City
Region United Kingdom
Timezone Europe/London (UTC+0.0)
Stats Elevation 15 ft / 5 m (AMSL)
Location 54.618108° -5.872575°
Runways 1
Magnetic Variation 3.091° W

METAR

EGAC 140950Z 22017KT 9999 -RA FEW012 SCT022 BKN040 03/02 Q0981

Decode

TAF

Not found

Departure Runways

ID Width Length Bearing (true) Bearing (mag) Surface Threshold Offset Overrun Length
04 148 ft / 45 m 6,009 ft / 1,832 m 34.93° 38.02° Asphalt 302 ft / 92 m 0 ft / 0 m
22 148 ft / 45 m 6,009 ft / 1,832 m 214.94° 218.03° Asphalt 0 ft / 0 m 0 ft / 0 m

EGCC

Details ICAO EGCC (MAN)
Name Manchester Intl
Region United Kingdom
Timezone Europe/London (UTC+0.0)
Stats Elevation 257 ft / 78 m (AMSL)
Location 53.347141° -2.283954°
Runways 2
Magnetic Variation 1.461° W

METAR

EGCC 140950Z AUTO 23013KT 9999 BKN027 04/02 Q0987 NOSIG

Decode

TAF

TAF EGCC 140502Z 1406/1512 23012KT 9999 SCT025 TEMPO 1406/1504 6000 SHRA BKN008 PROB30 TEMPO 1406/1504 2000 SHRASN BKN004 BKN010CB BECMG 1500/1503 34010KT

Decode

Destination Runways

ID Width Length Bearing (true) Bearing (mag) Surface Threshold Offset Overrun Length
05L 151 ft / 46 m 9,981 ft / 3,042 m 50.99° 52.45° Asphalt 1,401 ft / 427 m 0 ft / 0 m
05R 151 ft / 46 m 9,952 ft / 3,033 m 50.97° 52.43° Asphalt 0 ft / 0 m 26 ft / 8 m
23L 151 ft / 46 m 9,952 ft / 3,033 m 231.00° 232.46° Asphalt 561 ft / 171 m 0 ft / 0 m
23R 151 ft / 46 m 9,981 ft / 3,042 m 231.02° 232.48° Asphalt 597 ft / 182 m 0 ft / 0 m

Approach Navaids

Runway Type Ident Frequency Range Bearing (true) Bearing (mag) Slope Elevation
05L Localiser IMM 109.50 MHz 18 nm / 33 km 51.03° 52.49° - 257 ft / 78 m (AMSL)
05L Glidescope IMM 109.50 MHz 10 nm / 19 km 51.01° 52.47° 3.00° 257 ft / 78 m (AMSL)
05L DME IMM 109.50 MHz 18 nm / 33 km - - - 294 ft / 90 m (AMSL)
05R Localiser IMC 111.55 MHz 18 nm / 33 km 51.01° 52.47° - 257 ft / 78 m (AMSL)
05R Glidescope IMC 111.55 MHz 10 nm / 19 km 50.98° 52.45° 3.00° 257 ft / 78 m (AMSL)
05R DME IMC 111.55 MHz 18 nm / 33 km - - - 212 ft / 65 m (AMSL)
23R Localiser INN 109.50 MHz 18 nm / 33 km 230.98° 232.44° - 257 ft / 78 m (AMSL)
23R Glidescope INN 109.50 MHz 10 nm / 19 km 231.00° 232.47° 3.00° 257 ft / 78 m (AMSL)
23R DME INN 109.50 MHz 18 nm / 33 km - - - 294 ft / 90 m (AMSL)

Popular Alternatives